createdAt,value
2023-07-27T00:00:32.770Z,99339.69
2023-07-27T00:03:00.614Z,99338.00
2023-07-27T00:05:28.396Z,99343.03
2023-07-27T00:07:56.521Z,99337.19
2023-07-27T00:10:25.328Z,99343.06
2023-07-27T00:12:53.137Z,99348.13
2023-07-27T00:15:22.318Z,99348.13
2023-07-27T00:17:50.109Z,99351.50
2023-07-27T00:20:17.965Z,99357.38
2023-07-27T00:22:45.704Z,99355.72
2023-07-27T00:25:13.444Z,99355.72
2023-07-27T00:27:41.189Z,99356.56
2023-07-27T00:30:09.586Z,99359.06
2023-07-27T00:32:38.708Z,99358.22
2023-07-27T00:35:07.230Z,99359.91
2023-07-27T00:37:34.968Z,99359.06
2023-07-27T00:40:03.288Z,99362.44
2023-07-27T00:42:31.780Z,99359.06
2023-07-27T00:44:59.619Z,99354.03
2023-07-27T00:47:27.889Z,99353.16
2023-07-27T00:49:57.066Z,99351.50
2023-07-27T00:52:25.133Z,99349.81
2023-07-27T00:54:52.954Z,99354.03
2023-07-27T00:57:22.290Z,99357.38
2023-07-27T00:59:50.163Z,99349.81
2023-07-27T01:02:18.800Z,99354.88
2023-07-27T01:04:49.280Z,99354.03
2023-07-27T01:07:18.756Z,99356.56
2023-07-27T01:09:47.458Z,99364.97
2023-07-27T01:12:18.963Z,99364.13
2023-07-27T01:14:50.858Z,99364.97
2023-07-27T01:17:23.800Z,99361.59
2023-07-27T01:20:01.568Z,99364.94
2023-07-27T01:22:43.394Z,99367.47
2023-07-27T01:25:21.772Z,99366.66
2023-07-27T01:27:53.449Z,99365.78
2023-07-27T01:30:37.543Z,99367.47
2023-07-27T01:33:07.588Z,99360.75
2023-07-27T01:35:38.359Z,99360.75
2023-07-27T01:38:06.865Z,99361.59
2023-07-27T01:40:36.025Z,99365.78
2023-07-27T01:43:04.420Z,99359.91
2023-07-27T01:45:32.171Z,99359.06
2023-07-27T01:48:02.645Z,99359.91
2023-07-27T01:50:30.987Z,99364.94
2023-07-27T01:52:59.163Z,99356.56
2023-07-27T01:55:26.959Z,99366.63
2023-07-27T01:57:55.512Z,99374.16
2023-07-27T02:00:23.432Z,99370.00
2023-07-27T02:02:51.666Z,99363.25
2023-07-27T02:05:21.581Z,99365.81
2023-07-27T02:07:49.547Z,99366.63
2023-07-27T02:10:19.333Z,99369.16
2023-07-27T02:12:49.312Z,99374.19
2023-07-27T02:15:19.561Z,99368.31
2023-07-27T02:17:49.090Z,99370.84
2023-07-27T02:20:18.156Z,99379.25
2023-07-27T02:22:48.436Z,99375.03
2023-07-27T02:25:16.290Z,99379.25
2023-07-27T02:27:45.336Z,99375.88
2023-07-27T02:30:13.687Z,99377.53
2023-07-27T02:32:41.661Z,99382.59
2023-07-27T02:35:09.953Z,99380.91
2023-07-27T02:37:38.477Z,99378.38
2023-07-27T02:40:08.579Z,99385.94
2023-07-27T02:42:36.489Z,99388.47
2023-07-27T02:45:04.448Z,99398.56
2023-07-27T02:47:37.028Z,99401.09
2023-07-27T02:50:05.551Z,99398.56
2023-07-27T02:52:44.759Z,99388.44
2023-07-27T02:55:13.906Z,99395.19
2023-07-27T02:57:41.614Z,99401.88
2023-07-27T03:00:10.425Z,99402.75
2023-07-27T03:02:38.395Z,99396.91
2023-07-27T03:05:07.277Z,99398.56
2023-07-27T03:07:34.988Z,99395.22
2023-07-27T03:10:02.956Z,99400.25
2023-07-27T03:12:32.299Z,99391.84
2023-07-27T03:15:00.159Z,99396.03
2023-07-27T03:17:27.879Z,99404.44
2023-07-27T03:19:55.664Z,99410.34
2023-07-27T03:22:23.461Z,99408.66
2023-07-27T03:24:51.201Z,99410.31
2023-07-27T03:27:19.180Z,99405.25
2023-07-27T03:29:48.312Z,99415.31
2023-07-27T03:32:16.025Z,99415.28
2023-07-27T03:34:43.729Z,99416.09
2023-07-27T03:37:11.523Z,99421.97
2023-07-27T03:39:39.209Z,99416.94
2023-07-27T03:42:07.919Z,99423.63
2023-07-27T03:44:35.693Z,99435.41
2023-07-27T03:47:05.075Z,99433.75
2023-07-27T03:49:32.953Z,99437.94
2023-07-27T03:52:01.188Z,99443.81
2023-07-27T03:54:29.242Z,99440.44
2023-07-27T03:56:56.991Z,99437.06
2023-07-27T03:59:24.773Z,99440.41
2023-07-27T04:01:54.411Z,99438.75
2023-07-27T04:04:24.485Z,99452.22
2023-07-27T04:06:53.057Z,99450.53
2023-07-27T04:09:20.987Z,99453.91
2023-07-27T04:11:48.749Z,99449.72
2023-07-27T04:14:16.935Z,99459.78
2023-07-27T04:16:44.722Z,99455.56
2023-07-27T04:19:12.607Z,99457.25
2023-07-27T04:21:41.838Z,99458.09
2023-07-27T04:24:09.585Z,99463.16
2023-07-27T04:26:37.393Z,99464.88
2023-07-27T04:29:05.121Z,99469.09
2023-07-27T04:31:32.904Z,99466.66
2023-07-27T04:34:00.618Z,99467.47
2023-07-27T04:36:28.362Z,99472.56
2023-07-27T04:38:57.499Z,99478.47
2023-07-27T04:41:25.303Z,99486.88
2023-07-27T04:43:53.019Z,99482.66
2023-07-27T04:46:20.941Z,99485.19
2023-07-27T04:48:48.775Z,99481.81
2023-07-27T04:51:17.040Z,99485.16
2023-07-27T04:53:44.779Z,99480.13
2023-07-27T04:56:13.935Z,99482.63
2023-07-27T04:58:41.683Z,99481.81
2023-07-27T05:01:09.435Z,99488.53
2023-07-27T05:03:37.138Z,99495.28
2023-07-27T05:06:05.009Z,99494.44
2023-07-27T05:08:32.715Z,99498.63
2023-07-27T05:11:00.444Z,99494.44
2023-07-27T05:13:29.486Z,99506.19
2023-07-27T05:15:57.399Z,99502.00
2023-07-27T05:18:25.134Z,99502.84
2023-07-27T05:20:52.933Z,99506.22
2023-07-27T05:23:20.649Z,99512.97
2023-07-27T05:25:48.653Z,99502.03
2023-07-27T05:28:16.330Z,99498.69
2023-07-27T05:30:45.435Z,99513.81
2023-07-27T05:33:13.136Z,99509.63
2023-07-27T05:35:40.838Z,99512.13
2023-07-27T05:38:08.515Z,99507.94
2023-07-27T05:40:37.244Z,99506.25
2023-07-27T05:43:06.181Z,99510.47
2023-07-27T05:45:33.976Z,99509.63
2023-07-27T05:48:04.464Z,99507.97
2023-07-27T05:50:32.238Z,99513.00
2023-07-27T05:52:59.889Z,99507.94
2023-07-27T05:55:27.629Z,99522.25
2023-07-27T05:57:55.769Z,99519.72
2023-07-27T06:00:25.749Z,99515.53
2023-07-27T06:02:57.368Z,99511.34
2023-07-27T06:05:26.509Z,99514.72
2023-07-27T06:07:54.375Z,99508.81
2023-07-27T06:10:22.128Z,99512.16
2023-07-27T06:12:49.880Z,99518.06
2023-07-27T06:15:17.597Z,99507.97
2023-07-27T06:17:45.416Z,99518.09
2023-07-27T06:20:13.320Z,99511.38
2023-07-27T06:22:42.400Z,99517.25
2023-07-27T06:25:10.506Z,99515.56
2023-07-27T06:27:38.238Z,99510.50
2023-07-27T06:30:06.337Z,99512.19
2023-07-27T06:32:34.205Z,99513.03
2023-07-27T06:35:02.277Z,99509.66
2023-07-27T06:37:30.068Z,99508.84
2023-07-27T06:39:59.135Z,99504.59
2023-07-27T06:42:27.074Z,99510.47
2023-07-27T06:44:54.824Z,99505.44
2023-07-27T06:47:22.791Z,99506.28
2023-07-27T06:49:50.566Z,99509.66
2023-07-27T06:52:18.345Z,99510.50
2023-07-27T06:54:46.022Z,99510.50
2023-07-27T06:57:15.083Z,99510.47
2023-07-27T06:59:43.961Z,99513.00
2023-07-27T07:02:11.718Z,99514.69
2023-07-27T07:04:39.463Z,99505.44
2023-07-27T07:07:08.721Z,99513.00
2023-07-27T07:09:36.965Z,99513.84
2023-07-27T07:12:11.586Z,99510.44
2023-07-27T07:14:40.661Z,99513.81
2023-07-27T07:17:08.544Z,99505.41
2023-07-27T07:19:36.294Z,99507.91
2023-07-27T07:22:04.190Z,99502.03
2023-07-27T07:24:31.976Z,99507.91
2023-07-27T07:26:59.709Z,99515.47
2023-07-27T07:29:27.991Z,99511.25
2023-07-27T07:31:57.398Z,99517.97
2023-07-27T07:34:25.837Z,99519.66
2023-07-27T07:36:53.733Z,99517.13
2023-07-27T07:39:21.652Z,99519.66
2023-07-27T07:41:49.592Z,99520.50
2023-07-27T07:44:17.288Z,99522.19
2023-07-27T07:46:44.999Z,99520.47
2023-07-27T07:49:14.255Z,99519.63
2023-07-27T07:51:41.979Z,99515.38
2023-07-27T07:54:10.865Z,99511.16
2023-07-27T07:56:38.705Z,99511.97
2023-07-27T07:59:07.157Z,99511.13
2023-07-27T08:01:35.022Z,99511.13
2023-07-27T08:04:02.844Z,99506.06
2023-07-27T08:06:32.316Z,99506.91
2023-07-27T08:09:00.664Z,99515.34
2023-07-27T08:11:28.470Z,99509.38
2023-07-27T08:13:56.476Z,99506.00
2023-07-27T08:16:24.228Z,99500.09
2023-07-27T08:18:51.948Z,99498.41
2023-07-27T08:21:19.793Z,99497.53
2023-07-27T08:23:48.902Z,99505.97
2023-07-27T08:26:17.086Z,99494.16
2023-07-27T08:28:44.821Z,99492.47
2023-07-27T08:31:12.754Z,99489.94
2023-07-27T08:33:40.575Z,99488.22
2023-07-27T08:36:08.367Z,99487.31
2023-07-27T08:38:36.109Z,99482.25
2023-07-27T08:41:05.216Z,99480.53
2023-07-27T08:43:32.949Z,99471.19
2023-07-27T08:46:01.078Z,99479.59
2023-07-27T08:48:30.084Z,99477.03
2023-07-27T08:50:58.360Z,99474.47
2023-07-27T08:53:26.661Z,99474.47
2023-07-27T08:55:54.469Z,99478.63
2023-07-27T08:58:23.649Z,99474.38
2023-07-27T09:00:51.429Z,99463.28
2023-07-27T09:03:19.222Z,99463.31
2023-07-27T09:05:57.078Z,99472.59
2023-07-27T09:08:24.847Z,99468.34
2023-07-27T09:10:52.571Z,99463.28
2023-07-27T09:13:20.317Z,99464.97
2023-07-27T09:15:51.536Z,99462.44
2023-07-27T09:18:20.181Z,99466.59
2023-07-27T09:20:47.903Z,99463.13
2023-07-27T09:23:20.307Z,99459.56
2023-07-27T09:25:53.894Z,99455.09
2023-07-27T09:28:24.895Z,99463.31
2023-07-27T09:30:54.052Z,99462.22
2023-07-27T09:33:23.360Z,99456.91
2023-07-27T09:35:51.390Z,99462.78
2023-07-27T09:38:24.754Z,99449.25
2023-07-27T09:40:52.904Z,99450.72
2023-07-27T09:43:23.406Z,99444.31
2023-07-27T09:45:59.304Z,99447.47
2023-07-27T09:48:30.904Z,99432.97
2023-07-27T09:51:00.006Z,99442.28
2023-07-27T09:53:30.792Z,99441.44
2023-07-27T09:55:58.885Z,99424.56
2023-07-27T09:58:27.019Z,99416.25
2023-07-27T10:00:54.809Z,99417.13
2023-07-27T10:03:23.904Z,99408.72
2023-07-27T10:05:52.175Z,99411.25
2023-07-27T10:08:20.254Z,99412.84
2023-07-27T10:10:54.172Z,99419.47
2023-07-27T10:13:33.891Z,99416.13
2023-07-27T10:16:02.778Z,99411.44
2023-07-27T10:18:33.027Z,99409.03
2023-07-27T10:21:15.641Z,99404.03
2023-07-27T10:23:53.714Z,99414.28
2023-07-27T10:26:21.727Z,99397.25
2023-07-27T10:28:50.149Z,99395.44
2023-07-27T10:31:24.724Z,99388.56
2023-07-27T10:34:04.794Z,99399.44
2023-07-27T10:36:50.613Z,99388.38
2023-07-27T10:39:19.602Z,99401.84
2023-07-27T10:42:02.243Z,99389.94
2023-07-27T10:44:40.829Z,99397.59
2023-07-27T10:47:09.055Z,99382.44
2023-07-27T10:49:40.940Z,99383.31
2023-07-27T10:52:09.073Z,99383.22
2023-07-27T10:54:40.857Z,99380.53
2023-07-27T10:57:09.178Z,99377.94
2023-07-27T10:59:38.310Z,99369.50
2023-07-27T11:02:07.218Z,99381.38
2023-07-27T11:04:36.408Z,99368.72
2023-07-27T11:07:06.274Z,99371.34
2023-07-27T11:09:34.056Z,99371.25
2023-07-27T11:12:02.873Z,99349.97
2023-07-27T11:14:30.749Z,99356.66
2023-07-27T11:16:58.648Z,99354.88
2023-07-27T11:19:27.892Z,99354.03
2023-07-27T11:21:56.006Z,99351.44
2023-07-27T11:24:25.489Z,99339.53
2023-07-27T11:26:53.368Z,99340.28
2023-07-27T11:29:21.500Z,99331.03
2023-07-27T11:31:55.746Z,99331.78
2023-07-27T11:34:24.926Z,99334.28
2023-07-27T11:36:53.725Z,99334.06
2023-07-27T11:39:21.555Z,99343.22
2023-07-27T11:41:51.537Z,99327.81
2023-07-27T11:44:21.016Z,99326.94
2023-07-27T11:46:50.377Z,99337.91
2023-07-27T11:49:19.374Z,99330.22
2023-07-27T11:51:47.999Z,99322.38
2023-07-27T11:54:25.753Z,99320.50
2023-07-27T11:56:56.080Z,99329.44
2023-07-27T11:59:24.115Z,99325.66
2023-07-27T12:01:52.767Z,99312.75
2023-07-27T12:04:21.286Z,99309.13
2023-07-27T12:06:49.845Z,99306.44
2023-07-27T12:09:17.672Z,99297.97
2023-07-27T12:11:46.830Z,99302.88
2023-07-27T12:14:15.929Z,99300.06
2023-07-27T12:21:44.628Z,99291.25
2023-07-27T12:34:19.276Z,99290.19
2023-07-27T12:39:19.784Z,99288.94
2023-07-27T12:44:18.194Z,99290.03
2023-07-27T12:46:47.362Z,99288.94
2023-07-27T12:49:15.244Z,99279.09
2023-07-27T12:51:42.942Z,99269.84
2023-07-27T12:54:10.694Z,99270.84
2023-07-27T12:56:38.394Z,99273.34
2023-07-27T12:59:06.162Z,99259.16
2023-07-27T13:01:34.089Z,99275.16
2023-07-27T13:04:04.340Z,99265.31
2023-07-27T13:06:34.572Z,99266.41
2023-07-27T13:09:02.741Z,99258.75
2023-07-27T13:11:30.518Z,99272.47
2023-07-27T13:13:59.871Z,99253.94
2023-07-27T13:16:27.873Z,99247.44
2023-07-27T13:18:55.751Z,99242.13
2023-07-27T13:21:24.838Z,99249.53
2023-07-27T13:23:52.987Z,99247.75
2023-07-27T13:26:21.104Z,99246.94
2023-07-27T13:28:48.888Z,99232.97
2023-07-27T13:31:20.105Z,99234.00
2023-07-27T13:33:47.944Z,99235.69
2023-07-27T13:36:15.746Z,99246.31
2023-07-27T13:38:44.857Z,99250.81
2023-07-27T13:41:12.578Z,99240.19
2023-07-27T13:43:40.308Z,99239.69
2023-07-27T13:46:07.145Z,99236.19
2023-07-27T13:48:34.995Z,99232.75
2023-07-27T13:51:02.907Z,99223.75
2023-07-27T13:53:30.629Z,99228.38
2023-07-27T13:55:59.694Z,99226.69
2023-07-27T13:58:27.464Z,99219.03
2023-07-27T14:00:56.031Z,99235.41
2023-07-27T14:03:24.250Z,99228.84
2023-07-27T14:05:52.062Z,99217.91
2023-07-27T14:08:19.882Z,99229.94
2023-07-27T14:10:47.676Z,99219.81
2023-07-27T14:13:16.911Z,99218.09
2023-07-27T14:15:44.790Z,99223.75
2023-07-27T14:18:12.600Z,99219.19
2023-07-27T14:20:40.347Z,99214.31
2023-07-27T14:23:08.103Z,99212.00
2023-07-27T14:25:35.877Z,99213.94
2023-07-27T14:28:03.718Z,99210.84
2023-07-27T14:30:32.852Z,99214.88
2023-07-27T14:33:00.584Z,99216.09
2023-07-27T14:35:28.416Z,99206.41
2023-07-27T14:37:56.127Z,99199.13
2023-07-27T14:42:54.544Z,99199.31
2023-07-27T14:45:22.304Z,99199.22
2023-07-27T14:47:52.141Z,99199.22
2023-07-27T14:50:19.899Z,99195.34
2023-07-27T14:55:15.904Z,99182.00
2023-07-27T14:57:43.669Z,99181.88
2023-07-27T15:00:13.775Z,99183.63
2023-07-27T15:02:52.570Z,99183.94
2023-07-27T15:05:23.681Z,99189.25
2023-07-27T15:07:54.205Z,99193.13
2023-07-27T15:10:31.304Z,99191.94
2023-07-27T15:13:00.504Z,99191.94
2023-07-27T15:15:28.662Z,99189.03
2023-07-27T15:17:57.880Z,99192.66
2023-07-27T15:20:25.895Z,99196.31
2023-07-27T15:22:54.366Z,99187.00
2023-07-27T15:25:22.139Z,99177.66
2023-07-27T15:27:50.356Z,99178.81
2023-07-27T15:30:18.189Z,99169.53
2023-07-27T15:32:45.951Z,99168.00
2023-07-27T15:35:15.125Z,99180.94
2023-07-27T15:37:42.885Z,99163.19
2023-07-27T15:40:10.932Z,99165.97
2023-07-27T15:42:38.717Z,99167.25
2023-07-27T15:45:07.151Z,99158.31
2023-07-27T15:47:35.096Z,99167.28
2023-07-27T15:50:02.908Z,99161.31
2023-07-27T15:52:32.210Z,99156.06
2023-07-27T15:55:00.007Z,99163.13
2023-07-27T15:57:27.802Z,99146.81
2023-07-27T16:00:00.728Z,99158.69
2023-07-27T16:02:28.744Z,99149.41
2023-07-27T16:04:56.785Z,99150.53
2023-07-27T16:07:24.628Z,99153.25
2023-07-27T16:09:57.068Z,99143.81
2023-07-27T16:12:27.465Z,99134.81
2023-07-27T16:14:57.034Z,99145.47
2023-07-27T16:17:25.509Z,99140.56
2023-07-27T16:19:53.312Z,99140.50
2023-07-27T16:22:22.639Z,99141.38
2023-07-27T16:24:50.778Z,99134.78
2023-07-27T16:27:20.507Z,99136.19
2023-07-27T16:29:48.797Z,99131.53
2023-07-27T16:32:16.793Z,99137.19
2023-07-27T16:34:44.586Z,99143.88
2023-07-27T16:37:12.391Z,99130.44
2023-07-27T16:39:40.111Z,99136.25
2023-07-27T16:42:08.122Z,99145.59
2023-07-27T16:44:37.406Z,99136.50
2023-07-27T16:47:05.277Z,99143.69
2023-07-27T16:49:33.479Z,99141.56
2023-07-27T16:52:01.203Z,99136.66
2023-07-27T16:54:29.095Z,99133.59
2023-07-27T16:56:57.274Z,99146.16
2023-07-27T16:59:26.749Z,99140.63
2023-07-27T17:01:56.048Z,99138.44
2023-07-27T17:04:23.933Z,99140.16
2023-07-27T17:06:52.064Z,99142.34
2023-07-27T17:09:20.105Z,99137.34
2023-07-27T17:11:47.930Z,99130.50
2023-07-27T17:14:15.658Z,99139.69
2023-07-27T17:16:43.476Z,99137.84
2023-07-27T17:19:12.668Z,99135.03
2023-07-27T17:21:40.445Z,99138.88
2023-07-27T17:24:09.395Z,99133.88
2023-07-27T17:26:37.409Z,99129.56
2023-07-27T17:29:05.357Z,99135.41
2023-07-27T17:31:34.074Z,99138.63
2023-07-27T17:34:02.569Z,99134.31
2023-07-27T17:36:31.815Z,99132.44
2023-07-27T17:38:59.700Z,99138.09
2023-07-27T17:41:27.523Z,99138.66
2023-07-27T17:43:55.225Z,99135.69
2023-07-27T17:46:23.313Z,99138.63
2023-07-27T17:48:51.230Z,99134.72
2023-07-27T17:51:19.260Z,99130.91
2023-07-27T17:53:48.382Z,99127.91
2023-07-27T17:56:16.440Z,99133.28
2023-07-27T17:58:44.530Z,99126.84
2023-07-27T18:01:12.465Z,99129.56
2023-07-27T18:03:40.959Z,99139.13
2023-07-27T18:06:09.217Z,99134.22
2023-07-27T18:08:37.033Z,99132.72
2023-07-27T18:11:10.686Z,99129.47
2023-07-27T18:13:38.420Z,99133.88
2023-07-27T18:16:10.010Z,99133.97
2023-07-27T18:18:38.125Z,99136.69
2023-07-27T18:21:09.881Z,99140.34
2023-07-27T18:23:37.582Z,99132.88
2023-07-27T18:26:05.905Z,99128.81
2023-07-27T18:28:35.344Z,99134.13
2023-07-27T18:31:05.129Z,99140.19
2023-07-27T18:33:33.300Z,99141.16
2023-07-27T18:36:10.118Z,99141.22
2023-07-27T18:38:39.008Z,99139.84
2023-07-27T18:41:07.443Z,99128.94
2023-07-27T18:43:37.098Z,99146.06
2023-07-27T18:46:04.943Z,99142.03
2023-07-27T18:48:32.740Z,99150.69
2023-07-27T18:51:00.570Z,99147.47
2023-07-27T18:53:28.285Z,99152.78
2023-07-27T18:55:56.502Z,99155.50
2023-07-27T18:58:24.210Z,99157.47
2023-07-27T19:00:56.129Z,99168.63
2023-07-27T19:03:24.267Z,99168.69
2023-07-27T19:05:52.615Z,99167.94
2023-07-27T19:08:21.569Z,99167.09
2023-07-27T19:10:49.839Z,99165.44
2023-07-27T19:13:17.662Z,99168.84
2023-07-27T19:15:49.218Z,99172.38
2023-07-27T19:18:18.646Z,99174.13
2023-07-27T19:20:46.386Z,99174.19
2023-07-27T19:23:14.141Z,99179.38
2023-07-27T19:25:42.744Z,99177.75
2023-07-27T19:28:11.070Z,99175.28
2023-07-27T19:30:39.630Z,99182.03
2023-07-27T19:33:08.161Z,99180.31
2023-07-27T19:35:37.597Z,99176.19
2023-07-27T19:38:05.741Z,99174.56
2023-07-27T19:40:33.760Z,99174.50
2023-07-27T19:43:01.534Z,99173.53
2023-07-27T19:45:29.307Z,99167.50
2023-07-27T19:47:57.130Z,99168.25
2023-07-27T19:50:25.009Z,99169.88
2023-07-27T19:52:54.267Z,99168.94
2023-07-27T19:55:22.449Z,99163.00
2023-07-27T19:57:50.182Z,99163.81
2023-07-27T20:00:18.233Z,99149.44
2023-07-27T20:02:48.360Z,99151.13
2023-07-27T20:05:16.781Z,99153.69
2023-07-27T20:07:44.557Z,99150.31
2023-07-27T20:10:14.066Z,99146.94
2023-07-27T20:12:41.915Z,99148.66
2023-07-27T20:15:10.357Z,99153.75
2023-07-27T20:17:38.131Z,99152.91
2023-07-27T20:20:06.721Z,99158.91
2023-07-27T20:22:34.718Z,99155.72
2023-07-27T20:25:02.763Z,99155.72
2023-07-27T20:27:31.844Z,99155.72
2023-07-27T20:29:59.714Z,99152.31
2023-07-27T20:32:29.639Z,99148.97
2023-07-27T20:34:57.726Z,99148.25
2023-07-27T20:37:25.468Z,99149.97
2023-07-27T20:39:53.161Z,99150.81
2023-07-27T20:42:20.920Z,99144.91
2023-07-27T20:44:53.254Z,99139.88
2023-07-27T20:47:21.023Z,99143.34
2023-07-27T20:49:48.740Z,99140.00
2023-07-27T20:52:16.407Z,99140.84
2023-07-27T20:54:44.131Z,99135.81
2023-07-27T20:57:11.956Z,99142.63
2023-07-27T20:59:39.672Z,99142.63
2023-07-27T21:02:08.893Z,99141.00
2023-07-27T21:04:36.663Z,99143.53
2023-07-27T21:07:04.532Z,99141.81
2023-07-27T21:09:32.235Z,99135.91
2023-07-27T21:11:59.980Z,99137.63
2023-07-27T21:14:27.690Z,99133.41
2023-07-27T21:16:55.417Z,99131.72
2023-07-27T21:19:26.263Z,99136.81
2023-07-27T21:21:54.191Z,99135.97
2023-07-27T21:24:21.986Z,99136.88
2023-07-27T21:26:49.740Z,99138.59
2023-07-27T21:29:17.452Z,99142.78
2023-07-27T21:31:45.254Z,99139.38
2023-07-27T21:34:12.979Z,99137.63
2023-07-27T21:36:42.075Z,99140.16
2023-07-27T21:39:09.841Z,99141.91
2023-07-27T21:41:37.539Z,99145.47
2023-07-27T21:44:05.396Z,99137.31
2023-07-27T21:46:33.345Z,99142.06
2023-07-27T21:49:01.302Z,99142.25
2023-07-27T21:51:29.042Z,99143.84
2023-07-27T21:53:58.227Z,99136.84
2023-07-27T21:56:25.941Z,99140.94
2023-07-27T21:58:53.662Z,99136.69
2023-07-27T22:01:21.426Z,99133.28
2023-07-27T22:03:49.148Z,99134.94
2023-07-27T22:06:18.048Z,99134.94
2023-07-27T22:08:45.770Z,99130.63
2023-07-27T22:11:14.802Z,99126.69
2023-07-27T22:13:42.521Z,99124.88
2023-07-27T22:16:10.380Z,99128.09
2023-07-27T22:18:38.202Z,99132.16
2023-07-27T22:21:08.721Z,99122.72
2023-07-27T22:23:36.644Z,99119.25
2023-07-27T22:26:04.407Z,99114.09
2023-07-27T22:28:33.472Z,99120.81
2023-07-27T22:31:02.073Z,99114.03
2023-07-27T22:33:29.873Z,99127.63
2023-07-27T22:35:57.623Z,99122.53
2023-07-27T22:38:25.417Z,99112.44
2023-07-27T22:40:54.299Z,99113.22
2023-07-27T22:43:22.066Z,99109.88
2023-07-27T22:45:51.439Z,99115.84
2023-07-27T22:48:19.993Z,99114.97
2023-07-27T22:50:48.540Z,99107.34
2023-07-27T22:53:16.323Z,99105.66
2023-07-27T22:55:44.795Z,99107.34
2023-07-27T22:58:12.586Z,99105.66
2023-07-27T23:00:40.521Z,99103.13
2023-07-27T23:03:10.180Z,99101.38
2023-07-27T23:05:38.982Z,99098.03
2023-07-27T23:08:07.354Z,99098.91
2023-07-27T23:10:35.124Z,99099.75
2023-07-27T23:13:02.888Z,99095.50
2023-07-27T23:15:30.593Z,99099.78
2023-07-27T23:17:58.339Z,99096.47
2023-07-27T23:20:27.448Z,99093.91
2023-07-27T23:22:55.221Z,99097.31
2023-07-27T23:25:22.896Z,99098.16
2023-07-27T23:27:50.655Z,99096.47
2023-07-27T23:30:18.421Z,99094.00
2023-07-27T23:32:46.193Z,99098.25
2023-07-27T23:35:13.972Z,99093.91
2023-07-27T23:37:43.062Z,99097.25
2023-07-27T23:40:11.625Z,99097.25
2023-07-27T23:42:39.356Z,99099.78
2023-07-27T23:45:07.674Z,99094.72
2023-07-27T23:47:35.474Z,99087.09
2023-07-27T23:50:03.339Z,99081.19
2023-07-27T23:52:31.168Z,99082.84
2023-07-27T23:55:00.220Z,99081.28
2023-07-27T23:57:27.983Z,99080.50
2023-07-27T23:59:55.927Z,99082.22
